Time;durP1;ratioP1;P1;durP2;ratioP2;P2;SDS_P1;SDS_P2;PMS_P1;PMS_P2;Temp;Humidity;BMP_temperature;BMP_pressure;BME280_temperature;BME280_humidity;BME280_pressure;Samples;Min_cycle;Max_cycle;Signal;HPM_P1;HPM_P2
2021/06/15 04:00:28;;;;;;;5.10;3.07;;;14.10;96.30;;;;;;6115220;22;20436;-76
2021/06/15 04:02:56;;;;;;;12.97;3.50;;;15.20;96.30;;;;;;5046022;28;20932;-76
2021/06/15 04:05:28;;;;;;;5.27;2.83;;;16.20;96.30;;;;;;5031873;28;20599;-76
2021/06/15 04:07:56;;;;;;;4.60;3.13;;;17.10;96.30;;;;;;5033437;28;20415;-76
2021/06/15 04:10:22;;;;;;;9.23;2.87;;;17.60;96.30;;;;;;5034303;28;20627;-76
2021/06/15 04:12:50;;;;;;;5.30;2.63;;;17.80;96.30;;;;;;5048808;28;20909;-76
2021/06/15 04:15:17;;;;;;;2.43;2.23;;;18.00;96.30;;;;;;5058465;28;20925;-77
2021/06/15 04:17:49;;;;;;;2.97;2.63;;;18.70;93.10;;;;;;5053263;28;20450;-78
2021/06/15 04:20:21;;;;;;;6.00;2.70;;;19.20;91.60;;;;;;5053546;28;20517;-77
2021/06/15 04:22:48;;;;;;;4.37;2.70;;;19.80;89.00;;;;;;5054508;28;20452;-80
2021/06/15 04:25:22;;;;;;;5.40;3.00;;;20.30;87.30;;;;;;5054143;28;20485;-80
2021/06/15 04:27:48;;;;;;;3.77;2.73;;;20.60;86.20;;;;;;5053590;28;20781;-80
2021/06/15 04:30:16;;;;;;;4.53;2.40;;;20.90;85.50;;;;;;5035894;28;20414;-80
2021/06/15 04:32:55;;;;;;;4.20;2.90;;;21.20;84.00;;;;;;5037183;28;20415;-81
2021/06/15 04:35:37;;;;;;;7.50;2.30;;;21.50;82.50;;;;;;5055289;28;20398;-82
2021/06/15 04:38:08;;;;;;;3.80;2.60;;;20.80;85.00;;;;;;5055100;28;20426;-81
2021/06/15 04:40:44;;;;;;;5.40;3.43;;;20.70;85.20;;;;;;5054546;28;20459;-82
2021/06/15 04:43:27;;;;;;;4.70;2.87;;;20.70;85.70;;;;;;5054806;28;20759;-82
2021/06/15 04:45:58;;;;;;;4.60;2.60;;;20.90;85.00;;;;;;5034997;28;20443;-82
2021/06/15 04:48:29;;;;;;;4.37;2.83;;;21.10;84.50;;;;;;5035974;28;20396;-82
2021/06/15 04:50:59;;;;;;;5.90;2.70;;;21.10;84.20;;;;;;5036826;28;20435;-81
2021/06/15 04:53:27;;;;;;;3.83;2.87;;;21.10;84.10;;;;;;5053937;28;20467;-82
2021/06/15 04:55:53;;;;;;;3.57;2.60;;;21.00;85.50;;;;;;5054093;28;20506;-82
2021/06/15 04:58:20;;;;;;;3.97;3.47;;;21.00;85.80;;;;;;5036058;28;20422;-82
2021/06/15 05:00:50;;;;;;;3.87;2.83;;;21.40;84.10;;;;;;5054022;28;20813;-83
2021/06/15 05:03:19;;;;;;;5.03;2.80;;;21.70;82.90;;;;;;5053953;28;20414;-82
2021/06/15 05:05:46;;;;;;;4.10;2.90;;;22.20;82.60;;;;;;5053900;28;20450;-82
2021/06/15 05:08:14;;;;;;;2.80;2.60;;;22.50;81.30;;;;;;5053317;28;20483;-82
2021/06/15 05:10:41;;;;;;;4.20;2.43;;;22.80;80.40;;;;;;5024812;28;20889;-83
2021/06/15 05:13:11;;;;;;;4.17;2.63;;;23.10;79.80;;;;;;5034782;28;20419;-82
2021/06/15 05:15:42;;;;;;;3.70;2.30;;;23.20;79.00;;;;;;5024422;28;20426;-82
2021/06/15 05:18:09;;;;;;;6.57;2.83;;;22.60;80.50;;;;;;5038613;28;20419;-81
2021/06/15 05:20:35;;;;;;;6.00;3.07;;;22.40;80.70;;;;;;5040315;28;21180;-81
2021/06/15 05:23:08;;;;;;;4.87;2.87;;;21.80;83.10;;;;;;5041097;28;20411;-81
2021/06/15 05:25:33;;;;;;;4.07;2.83;;;21.00;84.60;;;;;;5040966;28;20458;-82
2021/06/15 05:27:59;;;;;;;4.07;2.80;;;20.70;86.40;;;;;;5020519;28;20943;-81
2021/06/15 05:30:25;;;;;;;4.33;3.10;;;21.10;85.60;;;;;;5042063;28;20264;-81
2021/06/15 05:32:51;;;;;;;4.70;3.17;;;21.50;84.50;;;;;;5023839;28;20760;-81
2021/06/15 05:35:16;;;;;;;3.80;2.50;;;21.50;84.90;;;;;;5041248;28;20454;-81
2021/06/15 05:37:43;;;;;;;3.00;2.30;;;21.70;84.80;;;;;;5022155;28;20184;-82
2021/06/15 05:40:10;;;;;;;6.33;3.33;;;21.70;84.80;;;;;;5040343;28;20180;-81
2021/06/15 05:42:35;;;;;;;3.90;3.50;;;21.50;85.60;;;;;;5039893;28;20434;-81
2021/06/15 05:45:01;;;;;;;5.50;2.97;;;21.40;86.40;;;;;;5039767;28;21632;-82
2021/06/15 05:47:29;;;;;;;3.43;2.63;;;21.80;84.90;;;;;;5038501;28;20183;-82
2021/06/15 05:49:54;;;;;;;3.50;2.30;;;22.20;83.80;;;;;;5051007;28;20164;-82
2021/06/15 05:52:20;;;;;;;3.90;2.83;;;23.00;82.00;;;;;;5064703;28;20971;-82
2021/06/15 05:54:45;;;;;;;5.70;2.63;;;23.80;79.60;;;;;;5050303;28;20171;-82
2021/06/15 05:57:11;;;;;;;4.10;2.50;;;23.50;79.90;;;;;;5054494;28;20591;-82
2021/06/15 05:59:36;;;;;;;4.03;2.57;;;23.00;82.30;;;;;;5036225;28;20515;-82
2021/06/15 06:02:03;;;;;;;4.87;2.50;;;23.60;81.40;;;;;;5035006;28;20708;-83
2021/06/15 06:05:01;;;;;;;4.93;2.83;;;24.30;79.10;;;;;;5052839;28;20171;-83
2021/06/15 06:10:12;;;;;;;3.97;2.37;;;24.00;80.00;;;;;;5051923;28;20480;-83
2021/06/15 06:12:38;;;;;;;4.07;2.70;;;24.10;79.40;;;;;;5034702;28;20473;-83
2021/06/15 06:15:05;;;;;;;3.43;2.43;;;24.40;78.30;;;;;;5055926;28;20425;-82
2021/06/15 06:17:32;;;;;;;5.53;3.00;;;24.30;80.60;;;;;;5048469;28;20425;-83
2021/06/15 06:19:57;;;;;;;5.80;3.47;;;25.00;79.00;;;;;;5053874;28;20405;-83
2021/06/15 06:22:23;;;;;;;7.20;2.93;;;25.40;77.10;;;;;;5050653;28;20532;-83
2021/06/15 06:24:49;;;;;;;2.93;2.63;;;25.70;76.50;;;;;;5033841;28;20290;-83
2021/06/15 06:27:15;;;;;;;4.87;2.63;;;25.60;77.00;;;;;;5041066;28;20856;-83
2021/06/15 06:29:41;;;;;;;3.63;2.80;;;25.90;75.80;;;;;;5071563;28;20413;-83
2021/06/15 06:32:07;;;;;;;7.90;3.00;;;25.90;75.50;;;;;;5057894;28;20191;-81
2021/06/15 06:34:32;;;;;;;5.60;2.93;;;26.30;76.60;;;;;;5053404;28;20421;-83
2021/06/15 06:36:58;;;;;;;5.50;2.40;;;26.30;75.70;;;;;;5033930;28;20179;-83
2021/06/15 06:39:24;;;;;;;5.83;3.20;;;26.50;76.60;;;;;;5052259;28;20175;-83
2021/06/15 06:41:49;;;;;;;4.60;2.83;;;27.30;75.80;;;;;;5034170;28;20199;-83
2021/06/15 06:44:15;;;;;;;4.67;2.60;;;27.40;75.20;;;;;;5051697;28;20623;-83
2021/06/15 06:46:41;;;;;;;4.37;2.60;;;28.20;74.80;;;;;;5051517;28;20202;-83
2021/06/15 06:49:07;;;;;;;4.93;2.73;;;29.50;70.90;;;;;;5051254;28;20452;-83
2021/06/15 06:51:33;;;;;;;3.10;2.60;;;29.10;69.40;;;;;;5051889;28;20568;-83
2021/06/15 06:53:59;;;;;;;5.47;2.30;;;29.00;70.80;;;;;;5051870;28;20631;-83
2021/06/15 06:56:29;;;;;;;5.80;2.90;;;29.90;66.80;;;;;;5033563;28;20784;-83
2021/06/15 06:58:55;;;;;;;3.67;2.40;;;30.50;64.80;;;;;;5051684;28;20410;-84
2021/06/15 07:01:21;;;;;;;6.33;2.83;;;29.70;67.30;;;;;;5051844;28;20446;-84
2021/06/15 07:03:48;;;;;;;5.00;3.37;;;29.20;68.30;;;;;;5051730;28;20171;-84
2021/06/15 07:06:14;;;;;;;4.20;2.70;;;29.80;67.80;;;;;;5051160;28;20528;-84
2021/06/15 07:08:40;;;;;;;5.57;2.30;;;30.30;69.70;;;;;;5055225;28;21157;-84
2021/06/15 07:11:05;;;;;;;4.00;2.33;;;29.60;70.30;;;;;;5055565;28;20421;-84
2021/06/15 07:13:31;;;;;;;10.90;3.05;;;30.30;70.00;;;;;;5055595;28;20175;-83
2021/06/15 07:15:57;;;;;;;3.35;2.30;;;31.20;65.80;;;;;;5057305;28;20175;-84
2021/06/15 07:18:22;;;;;;;5.57;2.42;;;31.00;62.40;;;;;;5061759;28;20856;-83
2021/06/15 07:20:48;;;;;;;8.55;2.70;;;31.90;64.50;;;;;;5055756;28;20603;-84
2021/06/15 07:23:14;;;;;;;4.68;2.20;;;32.70;65.30;;;;;;5055359;28;20311;-84
2021/06/15 07:25:40;;;;;;;3.00;2.13;;;32.60;64.60;;;;;;5055167;28;20551;-84
2021/06/15 07:28:06;;;;;;;10.38;2.55;;;32.30;62.90;;;;;;5037152;28;20167;-84
2021/06/15 07:30:31;;;;;;;7.38;3.08;;;32.60;62.50;;;;;;5055121;28;20171;-84
2021/06/15 07:32:57;;;;;;;5.47;2.90;;;31.30;62.70;;;;;;5055212;28;20635;-84
2021/06/15 07:35:24;;;;;;;2.83;2.50;;;31.10;66.50;;;;;;5037348;28;20193;-84
2021/06/15 07:37:50;;;;;;;2.95;2.35;;;30.10;66.20;;;;;;5054310;28;20179;-84
2021/06/15 07:40:22;;;;;;;2.90;2.33;;;29.80;70.30;;;;;;5037050;28;20237;-84
2021/06/15 07:42:49;;;;;;;5.00;2.78;;;31.30;70.90;;;;;;5037059;28;20229;-84
2021/06/15 07:45:14;;;;;;;2.95;2.40;;;31.70;64.20;;;;;;5054907;28;20301;-84
2021/06/15 07:47:40;;;;;;;4.40;2.75;;;31.10;66.10;;;;;;5054263;28;20662;-84
2021/06/15 07:50:06;;;;;;;2.97;2.30;;;31.10;65.30;;;;;;5054773;28;20183;-84
2021/06/15 07:52:31;;;;;;;3.00;2.33;;;31.40;64.20;;;;;;5054785;28;20209;-84
2021/06/15 07:54:57;;;;;;;3.30;2.37;;;31.30;65.70;;;;;;5054739;28;20439;-84
2021/06/15 07:57:22;;;;;;;2.47;2.00;;;31.50;64.90;;;;;;5054025;28;20599;-84
2021/06/15 07:59:48;;;;;;;7.27;2.50;;;;;;;;;;5054646;28;20190;-84
2021/06/15 08:02:14;;;;;;;4.37;2.50;;;31.70;62.80;;;;;;5036667;28;20255;-85
2021/06/15 08:04:39;;;;;;;4.00;1.93;;;31.10;65.70;;;;;;5054596;28;20539;-84
2021/06/15 08:07:05;;;;;;;5.40;2.47;;;31.80;66.40;;;;;;5054051;28;20201;-84
2021/06/15 08:09:30;;;;;;;7.10;2.37;;;31.70;63.80;;;;;;5054485;28;20635;-84
2021/06/15 08:11:56;;;;;;;3.50;2.00;;;31.80;63.10;;;;;;5054289;28;20191;-84
2021/06/15 08:14:21;;;;;;;5.63;2.00;;;30.60;68.80;;;;;;5054508;28;20182;-84
2021/06/15 08:16:47;;;;;;;8.43;2.17;;;30.90;69.50;;;;;;5054313;28;20185;-84
2021/06/15 08:19:12;;;;;;;3.67;2.20;;;31.00;67.60;;;;;;5061956;28;20273;-84
2021/06/15 08:21:38;;;;;;;5.13;2.80;;;31.40;69.60;;;;;;5055135;28;20194;-84
2021/06/15 08:24:04;;;;;;;5.80;2.53;;;31.30;65.60;;;;;;5054732;28;20179;-84
2021/06/15 08:26:30;;;;;;;4.40;2.40;;;30.20;69.00;;;;;;5054087;28;20450;-84
2021/06/15 08:28:55;;;;;;;3.10;2.27;;;29.80;67.10;;;;;;5036273;28;20742;-84
2021/06/15 08:31:21;;;;;;;6.10;2.80;;;29.70;71.90;;;;;;5054628;28;20520;-84
2021/06/15 08:33:46;;;;;;;5.77;2.97;;;30.00;73.80;;;;;;5054473;28;20175;-83
2021/06/15 08:36:12;;;;;;;4.47;2.33;;;29.60;70.80;;;;;;5053588;28;20175;-84
2021/06/15 08:38:38;;;;;;;4.40;2.30;;;;;;;;;;5054043;28;20586;-84
2021/06/15 08:41:03;;;;;;;5.77;2.63;;;30.30;69.60;;;;;;5053839;28;20955;-84
2021/06/15 08:43:29;;;;;;;5.20;2.47;;;29.60;69.90;;;;;;5053962;28;20183;-84
2021/06/15 08:45:56;;;;;;;5.00;2.87;;;30.10;69.40;;;;;;5035838;28;20234;-83
2021/06/15 08:48:22;;;;;;;5.43;2.23;;;;;;;;;;5035245;28;20418;-83
2021/06/15 08:50:48;;;;;;;4.07;2.33;;;29.00;69.80;;;;;;5053636;28;20425;-83
2021/06/15 08:53:14;;;;;;;4.33;2.57;;;28.80;68.50;;;;;;5053646;28;20517;-84
2021/06/15 08:55:54;;;;;;;5.10;2.40;;;29.10;75.60;;;;;;5053739;28;20186;-83
2021/06/15 08:58:43;;;;;;;5.93;2.60;;;29.00;66.30;;;;;;5053530;28;20159;-83
2021/06/15 09:01:11;;;;;;;12.47;2.83;;;29.10;72.10;;;;;;5013119;28;20440;-83
2021/06/15 09:03:37;;;;;;;7.53;2.63;;;29.60;70.50;;;;;;5053727;28;20426;-83
2021/06/15 09:06:03;;;;;;;12.57;2.70;;;29.40;71.00;;;;;;5053383;28;20985;-84
2021/06/15 09:08:30;;;;;;;3.60;2.30;;;29.10;71.40;;;;;;5053270;28;20246;-83
2021/06/15 09:10:56;;;;;;;4.87;2.77;;;29.40;70.50;;;;;;5054167;28;20925;-83
2021/06/15 09:13:39;;;;;;;25.77;4.40;;;29.50;66.70;;;;;;5053900;28;20459;-83
2021/06/15 09:16:17;;;;;;;3.23;2.23;;;29.40;67.90;;;;;;5053688;28;20461;-84
2021/06/15 09:18:42;;;;;;;4.20;2.70;;;29.50;69.60;;;;;;5054522;28;20397;-83
2021/06/15 09:21:08;;;;;;;7.57;2.27;;;;;;;;;;5061689;28;20456;-83
2021/06/15 09:23:35;;;;;;;5.40;2.70;;;;;;;;;;5035405;28;20171;-83
2021/06/15 09:26:02;;;;;;;4.60;2.27;;;28.00;74.20;;;;;;5053203;28;20760;-83
2021/06/15 09:28:28;;;;;;;10.47;2.70;;;;;;;;;;5035071;28;20422;-83
2021/06/15 09:30:56;;;;;;;6.17;2.77;;;28.40;74.60;;;;;;5052248;28;20479;-83
2021/06/15 09:33:42;;;;;;;5.40;2.67;;;28.20;70.50;;;;;;5053022;28;20167;-83
2021/06/15 09:36:25;;;;;;;3.67;2.60;;;27.30;69.70;;;;;;5052681;28;20394;-83
2021/06/15 09:38:59;;;;;;;4.57;2.47;;;27.90;73.60;;;;;;5034972;28;20408;-83
2021/06/15 09:41:37;;;;;;;3.47;2.80;;;28.00;75.90;;;;;;5052817;28;20855;-83
2021/06/15 09:44:26;;;;;;;6.17;2.60;;;29.00;69.80;;;;;;5052834;28;20421;-83
2021/06/15 09:46:54;;;;;;;5.87;2.53;;;29.30;73.00;;;;;;5034380;28;20456;-84
2021/06/15 09:49:43;;;;;;;5.00;2.43;;;28.60;71.70;;;;;;5035855;28;20484;-83
2021/06/15 09:52:13;;;;;;;6.30;2.57;;;;;;;;;;5035165;28;20433;-83
2021/06/15 09:54:40;;;;;;;5.47;2.70;;;28.70;69.90;;;;;;5059088;28;20434;-83
2021/06/15 09:57:08;;;;;;;7.97;3.17;;;27.10;68.70;;;;;;5074774;28;20429;-83
2021/06/15 09:59:34;;;;;;;4.60;2.70;;;27.50;70.60;;;;;;5053889;28;20473;-83
2021/06/15 10:02:00;;;;;;;5.00;2.77;;;28.20;73.90;;;;;;5052268;28;20923;-83
2021/06/15 10:04:27;;;;;;;4.50;2.57;;;29.00;72.60;;;;;;5052527;28;20159;-83
2021/06/15 10:06:58;;;;;;;3.60;2.10;;;29.60;69.60;;;;;;5051834;28;20286;-83
2021/06/15 10:09:32;;;;;;;4.00;2.73;;;28.90;71.10;;;;;;5052329;28;20459;-83
2021/06/15 10:12:03;;;;;;;3.90;2.30;;;29.20;69.00;;;;;;5052131;28;20429;-83
2021/06/15 10:14:29;;;;;;;9.00;2.73;;;;;;;;;;5052237;28;20413;-83
2021/06/15 10:16:56;;;;;;;4.03;3.03;;;29.20;73.20;;;;;;5050847;28;20928;-83
2021/06/15 10:19:23;;;;;;;3.77;2.57;;;28.90;70.20;;;;;;5051878;28;20447;-83
2021/06/15 10:24:18;;;;;;;6.43;2.83;;;;;;;;;;5087421;22;20562;-79
2021/06/15 10:26:44;;;;;;;3.43;2.47;;;29.00;66.10;;;;;;5050950;28;20448;-80
2021/06/15 10:29:15;;;;;;;6.90;2.80;;;28.90;68.00;;;;;;5051798;28;20413;-79
2021/06/15 10:31:42;;;;;;;3.90;2.53;;;29.10;71.10;;;;;;5051857;28;20167;-79
2021/06/15 10:34:08;;;;;;;4.23;2.30;;;28.90;67.30;;;;;;5051780;28;20429;-81
2021/06/15 10:36:47;;;;;;;4.67;2.33;;;28.50;71.50;;;;;;5051051;28;20409;-79
2021/06/15 10:39:38;;;;;;;4.60;2.70;;;28.80;66.90;;;;;;5051540;28;20413;-79
2021/06/15 10:42:14;;;;;;;4.37;2.50;;;29.00;67.60;;;;;;5054024;28;20805;-79
2021/06/15 10:44:41;;;;;;;4.80;2.10;;;28.60;69.00;;;;;;5052453;28;20416;-79
2021/06/15 10:47:10;;;;;;;3.13;2.10;;;;;;;;;;5057380;28;20408;-79
2021/06/15 10:50:00;;;;;;;3.83;2.07;;;27.20;67.10;;;;;;5057772;28;20412;-78
2021/06/15 10:52:27;;;;;;;2.83;2.53;;;;;;;;;;5075876;28;20436;-79
2021/06/15 10:54:53;;;;;;;7.70;2.63;;;;;;;;;;5075775;28;20912;-79
2021/06/15 10:57:23;;;;;;;6.07;2.63;;;;;;;;;;5075313;28;20438;-78
2021/06/15 11:00:12;;;;;;;6.83;2.60;;;28.20;68.60;;;;;;5075669;28;20170;-79
2021/06/15 11:02:39;;;;;;;5.30;2.60;;;28.10;74.30;;;;;;5057551;28;20444;-79
2021/06/15 11:06:03;;;;;;;3.50;2.47;;;28.10;72.50;;;;;;5075136;28;20455;-78
2021/06/15 11:08:30;;;;;;;4.70;2.90;;;;;;;;;;4977088;28;20879;-79
2021/06/15 11:11:04;;;;;;;8.20;2.47;;;28.50;68.10;;;;;;4993844;28;20412;-79
2021/06/15 11:13:43;;;;;;;4.83;2.50;;;;;;;;;;5037319;28;20431;-79
2021/06/15 11:16:31;;;;;;;5.73;2.40;;;28.90;64.60;;;;;;5075018;28;20422;-79
2021/06/15 11:19:12;;;;;;;3.53;2.33;;;29.20;68.60;;;;;;5075185;28;20836;-78
2021/06/15 11:21:44;;;;;;;5.47;2.73;;;29.00;71.60;;;;;;5057373;28;20424;-79
2021/06/15 11:24:21;;;;;;;4.03;2.60;;;29.00;68.10;;;;;;5074732;28;20452;-79
2021/06/15 11:26:59;;;;;;;9.70;2.60;;;28.60;66.60;;;;;;5056345;28;20820;-79
2021/06/15 11:29:39;;;;;;;5.10;2.30;;;28.50;69.40;;;;;;5074968;28;20448;-79
2021/06/15 11:32:23;;;;;;;4.20;2.27;;;;;;;;;;5075059;28;20406;-79
2021/06/15 11:37:23;;;;;;;5.67;2.20;;;29.50;68.60;;;;;;5054631;28;20413;-78
2021/06/15 11:39:50;;;;;;;3.90;2.80;;;29.10;67.60;;;;;;5082341;28;20446;-78
2021/06/15 11:42:26;;;;;;;4.47;2.50;;;28.30;68.10;;;;;;5074698;28;20435;-78
2021/06/15 11:45:02;;;;;;;4.80;2.50;;;28.60;71.90;;;;;;5074529;28;20404;-79
2021/06/15 11:47:28;;;;;;;4.50;2.40;;;29.10;69.50;;;;;;5074074;28;20502;-79
2021/06/15 11:50:29;;;;;;;3.63;2.40;;;28.80;68.40;;;;;;5074641;28;20564;-79
2021/06/15 11:53:02;;;;;;;2.47;2.00;;;29.40;67.80;;;;;;5073655;28;20202;-80
2021/06/15 11:55:31;;;;;;;3.20;2.23;;;;;;;;;;5074983;28;20542;-78
2021/06/15 11:57:59;;;;;;;4.33;2.50;;;29.60;68.30;;;;;;5073928;28;20774;-79
2021/06/15 12:00:25;;;;;;;6.10;2.47;;;;;;;;;;5074423;28;20515;-79
2021/06/15 12:03:07;;;;;;;4.67;2.30;;;29.90;65.50;;;;;;5056594;28;20518;-79
2021/06/15 12:05:33;;;;;;;5.23;2.67;;;29.70;66.80;;;;;;5074333;28;20596;-79
2021/06/15 12:07:59;;;;;;;3.90;2.30;;;29.10;66.30;;;;;;5073776;28;21018;-79
2021/06/15 12:10:26;;;;;;;7.50;2.67;;;29.20;70.70;;;;;;5074297;28;20563;-79
2021/06/15 12:12:51;;;;;;;5.00;2.77;;;29.60;70.90;;;;;;5074297;28;20207;-79
2021/06/15 12:15:39;;;;;;;5.17;2.47;;;29.60;67.00;;;;;;5055976;28;20417;-78
2021/06/15 12:18:08;;;;;;;2.83;2.30;;;28.80;69.10;;;;;;5073613;28;20182;-78
2021/06/15 12:20:36;;;;;;;5.30;2.37;;;28.50;70.50;;;;;;5056184;28;21050;-79
2021/06/15 12:23:22;;;;;;;3.00;2.23;;;28.20;72.20;;;;;;5073945;28;20448;-79
2021/06/15 12:25:48;;;;;;;5.97;2.57;;;27.50;68.80;;;;;;5073535;28;20506;-78
2021/06/15 12:28:18;;;;;;;3.23;2.40;;;;;;;;;;5073515;28;20482;-78
2021/06/15 12:30:44;;;;;;;6.10;2.97;;;;;;;;;;5073894;28;20162;-78
2021/06/15 12:33:11;;;;;;;8.80;2.40;;;27.80;73.70;;;;;;5073747;28;20432;-78
2021/06/15 12:35:37;;;;;;;7.80;3.17;;;28.20;73.80;;;;;;5073903;28;20412;-78
2021/06/15 12:38:10;;;;;;;6.67;2.70;;;;;;;;;;5055326;28;20412;-78
2021/06/15 12:40:38;;;;;;;6.90;3.23;;;27.60;72.60;;;;;;5073901;28;20466;-79
2021/06/15 12:43:04;;;;;;;5.07;2.80;;;;;;;;;;5073332;28;20519;-78
2021/06/15 12:45:35;;;;;;;3.10;2.23;;;27.00;79.70;;;;;;5073060;28;20558;-78
2021/06/15 12:48:03;;;;;;;4.90;2.63;;;27.10;73.80;;;;;;5072654;28;20420;-78
2021/06/15 12:50:29;;;;;;;2.77;2.17;;;27.30;75.80;;;;;;5073600;28;20466;-78
2021/06/15 12:53:08;;;;;;;4.63;2.40;;;;;;;;;;5073461;28;20441;-78
2021/06/15 12:55:41;;;;;;;4.00;2.57;;;;;;;;;;5073414;28;20405;-78
2021/06/15 12:58:07;;;;;;;7.60;2.57;;;;;;;;;;5054871;28;20404;-79
2021/06/15 13:00:33;;;;;;;3.67;2.37;;;;;;;;;;5055318;28;20413;-78
2021/06/15 13:03:12;;;;;;;4.47;2.63;;;28.20;74.00;;;;;;5073117;28;20206;-78
2021/06/15 13:05:38;;;;;;;9.00;2.80;;;27.80;74.20;;;;;;5072215;28;20653;-79
2021/06/15 13:08:04;;;;;;;4.50;2.63;;;27.30;73.50;;;;;;5072744;28;20415;-79
2021/06/15 13:10:29;;;;;;;5.40;2.90;;;27.30;74.70;;;;;;5073111;28;20257;-78
2021/06/15 13:13:04;;;;;;;5.23;2.47;;;27.30;74.70;;;;;;5073153;28;20199;-78
2021/06/15 13:15:32;;;;;;;10.60;2.77;;;27.40;74.60;;;;;;5073128;28;20199;-79
2021/06/15 13:18:00;;;;;;;9.03;2.57;;;27.00;74.10;;;;;;5072495;28;20904;-78
2021/06/15 13:20:26;;;;;;;13.20;3.97;;;27.40;77.60;;;;;;5072853;28;20449;-78
2021/06/15 13:22:53;;;;;;;8.00;3.00;;;27.50;75.90;;;;;;5072477;28;20456;-78
2021/06/15 13:25:21;;;;;;;6.33;3.03;;;27.50;73.90;;;;;;5073231;28;20456;-78
2021/06/15 13:27:49;;;;;;;8.73;3.37;;;;;;;;;;5072518;28;20409;-79
2021/06/15 13:30:21;;;;;;;9.50;3.43;;;27.10;73.80;;;;;;5055061;28;20522;-79
2021/06/15 13:33:08;;;;;;;4.87;2.90;;;27.30;78.40;;;;;;5054767;28;20505;-78
2021/06/15 13:35:43;;;;;;;5.03;2.80;;;27.50;76.00;;;;;;5072608;28;20419;-78
2021/06/15 13:38:10;;;;;;;5.30;3.00;;;;;;;;;;5072104;28;20404;-79
2021/06/15 13:40:50;;;;;;;4.80;2.70;;;27.80;75.10;;;;;;5054544;28;20492;-79
2021/06/15 13:43:15;;;;;;;6.50;3.20;;;27.30;75.00;;;;;;5072473;28;20428;-78
2021/06/15 13:45:41;;;;;;;7.10;3.43;;;;;;;;;;5072310;28;20444;-79
2021/06/15 13:48:07;;;;;;;3.67;2.90;;;26.70;76.90;;;;;;5054028;28;20197;-79
2021/06/15 13:50:34;;;;;;;7.87;3.30;;;26.50;79.30;;;;;;5072356;28;20175;-79
2021/06/15 13:53:01;;;;;;;4.43;3.03;;;;;;;;;;5072008;28;20471;-78
2021/06/15 13:55:26;;;;;;;3.87;2.97;;;;;;;;;;5072426;28;20433;-78
2021/06/15 13:57:52;;;;;;;4.83;2.90;;;;;;;;;;5071742;28;20904;-78
2021/06/15 14:00:20;;;;;;;4.23;3.17;;;27.00;74.50;;;;;;5072361;28;20179;-78
2021/06/15 14:02:47;;;;;;;4.67;3.03;;;26.80;75.90;;;;;;5071893;28;20194;-78
2021/06/15 14:05:13;;;;;;;3.53;2.70;;;26.80;78.50;;;;;;5072273;28;20471;-78
2021/06/15 14:07:39;;;;;;;4.93;3.30;;;;;;;;;;5071729;28;20413;-78
2021/06/15 14:10:06;;;;;;;5.93;3.40;;;26.00;76.70;;;;;;5054084;28;20439;-78
2021/06/15 14:12:33;;;;;;;5.20;2.70;;;26.20;80.80;;;;;;5071929;28;20441;-78
2021/06/15 14:15:04;;;;;;;7.47;2.73;;;26.80;80.10;;;;;;5072080;28;20413;-78
2021/06/15 14:17:30;;;;;;;6.40;3.13;;;27.10;77.80;;;;;;5071094;28;20417;-79
2021/06/15 14:19:56;;;;;;;14.03;5.67;;;26.90;77.30;;;;;;5053750;28;20457;-78
2021/06/15 14:22:21;;;;;;;11.57;3.83;;;27.30;75.70;;;;;;5071711;28;20494;-78
2021/06/15 14:24:47;;;;;;;10.33;4.33;;;27.30;76.80;;;;;;5072150;28;20542;-78
2021/06/15 14:27:12;;;;;;;5.93;3.33;;;27.50;79.10;;;;;;5053218;28;20662;-78
2021/06/15 14:29:38;;;;;;;11.23;4.10;;;;;;;;;;5071716;28;20284;-78
2021/06/15 14:32:04;;;;;;;7.57;3.70;;;27.30;80.50;;;;;;5053605;28;20178;-78
2021/06/15 14:34:30;;;;;;;5.60;2.80;;;27.00;77.30;;;;;;5053569;28;20244;-78
2021/06/15 14:36:55;;;;;;;8.10;3.80;;;27.40;78.10;;;;;;5053317;28;20234;-78
2021/06/15 14:39:21;;;;;;;6.10;2.83;;;27.60;74.00;;;;;;5071509;28;20179;-78
2021/06/15 14:41:48;;;;;;;6.63;3.10;;;;;;;;;;5074574;28;20209;-81
2021/06/15 14:44:13;;;;;;;13.60;6.17;;;;;;;;;;5057353;28;20206;-81
2021/06/15 14:46:40;;;;;;;14.80;3.50;;;26.20;77.80;;;;;;5041072;28;20530;-81
2021/06/15 14:49:06;;;;;;;7.70;3.60;;;26.30;77.90;;;;;;5071770;28;20250;-78
2021/06/15 14:51:31;;;;;;;15.83;4.10;;;26.40;75.70;;;;;;5072494;28;20452;-78
2021/06/15 14:54:04;;;;;;;11.80;3.30;;;;;;;;;;5072233;28;20186;-78
2021/06/15 14:56:35;;;;;;;23.97;6.83;;;26.40;78.70;;;;;;5071256;28;20174;-78
2021/06/15 14:59:00;;;;;;;7.97;4.03;;;26.20;78.00;;;;;;5071920;28;20451;-78
2021/06/15 15:01:27;;;;;;;4.10;3.13;;;25.90;75.50;;;;;;5072525;28;20420;-78
2021/06/15 15:03:52;;;;;;;7.53;3.90;;;25.90;78.40;;;;;;5071843;28;20251;-78
2021/06/15 15:06:17;;;;;;;4.43;3.27;;;26.00;76.00;;;;;;5071026;28;20461;-78
2021/06/15 15:08:43;;;;;;;7.90;4.03;;;;;;;;;;5071835;28;20175;-78
2021/06/15 15:11:09;;;;;;;6.53;3.27;;;;;;;;;;5072098;28;20174;-78
2021/06/15 15:13:36;;;;;;;5.97;3.00;;;26.80;76.80;;;;;;5071836;28;20195;-78
2021/06/15 15:16:03;;;;;;;5.73;3.33;;;;;;;;;;5071729;28;20447;-79
2021/06/15 15:18:28;;;;;;;6.10;2.90;;;27.20;74.50;;;;;;5062960;28;20419;-78
2021/06/15 15:20:55;;;;;;;8.33;3.90;;;27.20;73.00;;;;;;5071179;28;20420;-79
2021/06/15 15:23:22;;;;;;;6.33;3.50;;;27.20;73.20;;;;;;5071052;28;20698;-78
2021/06/15 15:25:48;;;;;;;11.70;3.30;;;;;;;;;;5071273;28;20504;-79
2021/06/15 15:28:15;;;;;;;5.37;3.50;;;27.50;76.50;;;;;;5071467;28;20442;-79
2021/06/15 15:30:41;;;;;;;10.10;3.70;;;27.40;77.00;;;;;;5057025;28;20175;-79
2021/06/15 15:33:07;;;;;;;8.23;3.00;;;27.60;77.50;;;;;;5074996;28;20424;-78
2021/06/15 15:35:33;;;;;;;4.20;2.90;;;27.50;77.20;;;;;;5074857;28;20470;-80
2021/06/15 15:37:59;;;;;;;5.23;3.00;;;27.50;76.60;;;;;;5073877;28;20178;-79
2021/06/15 15:40:25;;;;;;;7.83;3.27;;;27.10;79.50;;;;;;5075056;28;20415;-79
2021/06/15 15:42:51;;;;;;;11.30;3.60;;;;;;;;;;5075029;28;20722;-78
2021/06/15 15:45:18;;;;;;;6.10;3.10;;;26.80;79.40;;;;;;5057618;28;20670;-79
2021/06/15 15:47:44;;;;;;;7.40;3.47;;;;;;;;;;5074705;28;20413;-79
2021/06/15 15:50:12;;;;;;;4.70;3.80;;;26.00;81.10;;;;;;5074935;28;20404;-79
2021/06/15 15:52:38;;;;;;;7.30;3.40;;;25.70;79.80;;;;;;5074648;28;20273;-79
2021/06/15 15:55:05;;;;;;;7.63;3.90;;;25.20;79.60;;;;;;5074730;28;20936;-79
2021/06/15 15:57:33;;;;;;;5.73;3.80;;;24.90;81.40;;;;;;5057054;28;20413;-79
2021/06/15 16:00:00;;;;;;;6.27;3.80;;;24.80;83.60;;;;;;5074723;28;20405;-79
2021/06/15 16:02:25;;;;;;;9.63;3.97;;;24.60;83.00;;;;;;5074350;28;20435;-79
2021/06/15 16:04:51;;;;;;;6.67;4.23;;;24.70;84.80;;;;;;5056593;28;20421;-78
2021/06/15 16:07:16;;;;;;;8.40;4.23;;;24.90;83.90;;;;;;5073984;28;20175;-78
2021/06/15 16:09:42;;;;;;;9.23;3.40;;;25.00;83.70;;;;;;5074583;28;20511;-78
2021/06/15 16:12:08;;;;;;;7.30;3.30;;;25.10;84.70;;;;;;5079823;28;20569;-77
2021/06/15 16:14:34;;;;;;;3.90;3.60;;;25.20;83.60;;;;;;5073992;28;20175;-79
2021/06/15 16:17:00;;;;;;;5.30;3.03;;;;;;;;;;5073686;28;20409;-77
2021/06/15 16:19:26;;;;;;;6.03;3.63;;;;;;;;;;5056226;28;20179;-78
2021/06/15 16:21:53;;;;;;;8.80;3.37;;;25.70;83.00;;;;;;5074095;28;20413;-78
2021/06/15 16:24:18;;;;;;;5.77;3.60;;;25.90;79.20;;;;;;5074563;28;20425;-76
2021/06/15 16:26:44;;;;;;;8.90;3.23;;;;;;;;;;5073299;28;20476;-77
2021/06/15 16:29:10;;;;;;;9.83;4.10;;;;;;;;;;5073349;28;20668;-77
2021/06/15 16:31:36;;;;;;;5.80;3.50;;;;;;;;;;5073420;28;20642;-76
2021/06/15 16:34:02;;;;;;;8.90;3.53;;;26.40;81.10;;;;;;5073736;28;20191;-76
2021/06/15 16:36:27;;;;;;;6.30;3.60;;;26.60;79.70;;;;;;5073224;28;20190;-77
2021/06/15 16:38:53;;;;;;;10.30;3.60;;;26.30;77.40;;;;;;5055553;28;20580;-77
2021/06/15 16:41:23;;;;;;;5.97;3.10;;;26.10;77.30;;;;;;5073860;28;20179;-77
2021/06/15 16:43:49;;;;;;;23.13;4.57;;;26.00;77.00;;;;;;5056013;28;20293;-77
2021/06/15 16:46:15;;;;;;;15.37;3.73;;;;;;;;;;5073309;28;20553;-77
2021/06/15 16:48:41;;;;;;;5.30;3.40;;;25.90;77.40;;;;;;5073992;28;20175;-77
2021/06/15 16:51:08;;;;;;;9.70;3.80;;;26.20;80.10;;;;;;5073878;28;20413;-77
2021/06/15 16:53:34;;;;;;;5.07;3.43;;;;;;;;;;5075301;28;20456;-78
2021/06/15 16:56:00;;;;;;;5.00;3.37;;;26.10;80.80;;;;;;5074749;28;20401;-78
2021/06/15 16:58:25;;;;;;;8.17;4.27;;;;;;;;;;5073620;28;20170;-78
2021/06/15 17:00:51;;;;;;;10.57;3.70;;;25.70;78.00;;;;;;5074447;28;20194;-78
2021/06/15 17:03:18;;;;;;;5.50;3.03;;;;;;;;;;5056337;28;20199;-79
2021/06/15 17:05:44;;;;;;;9.50;3.37;;;25.60;80.90;;;;;;5073437;28;20198;-79
2021/06/15 17:08:14;;;;;;;4.80;3.50;;;;;;;;;;5055315;28;20436;-78
2021/06/15 17:10:40;;;;;;;19.20;3.63;;;;;;;;;;5073112;28;20404;-78
2021/06/15 17:13:06;;;;;;;6.50;3.50;;;25.20;80.80;;;;;;5055332;28;20482;-80
2021/06/15 17:15:33;;;;;;;4.77;3.43;;;25.20;79.70;;;;;;5079361;28;20455;-80
2021/06/15 17:18:02;;;;;;;8.23;3.60;;;;;;;;;;5072822;28;20505;-79
2021/06/15 17:20:28;;;;;;;7.53;4.50;;;;;;;;;;5075656;28;20415;-81